Time;durP1;ratioP1;P1;durP2;ratioP2;P2;SDS_P1;SDS_P2;PMS_P1;PMS_P2;Temp;Humidity;BMP_temperature;BMP_pressure;BME280_temperature;BME280_humidity;BME280_pressure;Samples;Min_cycle;Max_cycle;Signal;HPM_P1;HPM_P2
2024/01/05 00:01:29;;;;;;;44.50;23.50;;;;;;;28.75;68.95;101147.56;5047423;28;69374;-40
2024/01/05 00:04:00;;;;;;;50.42;24.60;;;;;;;28.85;67.91;101155.34;5039683;28;66626;-38
2024/01/05 00:06:31;;;;;;;;;;;;;;;28.65;69.56;101157.94;5025307;28;70434;-40
2024/01/05 00:09:02;;;;;;;52.33;23.70;;;;;;;28.95;65.30;101153.94;5031793;28;67173;-39
2024/01/05 00:11:32;;;;;;;41.93;23.50;;;;;;;28.99;64.75;101159.75;5034804;28;69943;-40
2024/01/05 00:14:03;;;;;;;52.60;24.05;;;;;;;29.06;64.44;101159.81;5026479;28;65280;-40
2024/01/05 00:16:33;;;;;;;54.75;24.13;;;;;;;29.09;64.27;101160.25;5029058;28;70484;-39
2024/01/05 00:19:04;;;;;;;44.60;24.88;;;;;;;29.08;64.70;101157.75;5023350;28;65323;-39
2024/01/05 00:21:35;;;;;;;48.13;25.88;;;;;;;29.16;64.73;101166.50;5029509;28;70187;-37
2024/01/05 00:24:05;;;;;;;49.88;26.92;;;;;;;29.18;64.81;101169.84;5032043;28;66510;-38
2024/01/05 00:26:41;;;;;;;51.33;26.48;;;;;;;29.19;64.34;101173.38;5028663;28;70005;-40
2024/01/05 00:29:12;;;;;;;53.40;27.60;;;;;;;29.22;64.15;101167.56;5040731;28;66171;-39
2024/01/05 00:31:43;;;;;;;60.25;29.33;;;;;;;29.15;64.73;101161.31;5029290;28;68852;-40
2024/01/05 00:34:14;;;;;;;50.70;28.35;;;;;;;29.24;64.53;101173.59;5045273;28;66527;-40
2024/01/05 00:36:44;;;;;;;50.97;27.75;;;;;;;29.28;64.67;101180.28;5043229;28;70437;-40
2024/01/05 00:39:16;;;;;;;60.22;29.35;;;;;;;29.17;64.06;101161.97;5034096;28;66317;-40
2024/01/05 00:41:47;;;;;;;53.23;29.63;;;;;;;29.22;64.49;101170.25;5028076;28;70757;-40
2024/01/05 00:44:18;;;;;;;43.97;25.73;;;;;;;29.31;64.59;101184.44;5019300;28;65277;-39
2024/01/05 00:46:48;;;;;;;48.38;26.10;;;;;;;29.34;64.12;101198.38;5028068;28;69637;-39
2024/01/05 00:49:19;;;;;;;43.80;26.08;;;;;;;29.35;64.50;101199.22;5035683;28;66025;-39
2024/01/05 00:51:49;;;;;;;50.80;26.70;;;;;;;29.36;64.52;101201.72;5046511;28;69039;-38
2024/01/05 00:54:20;;;;;;;44.03;26.70;;;;;;;29.38;64.56;101201.50;5037404;28;66829;-39
2024/01/05 00:56:50;;;;;;;45.70;25.67;;;;;;;29.36;64.19;101204.44;5065979;28;70606;-40
2024/01/05 00:59:21;;;;;;;45.50;25.27;;;;;;;29.40;64.58;101210.25;5036689;28;66530;-40
2024/01/05 01:01:51;;;;;;;42.88;26.20;;;;;;;29.43;64.59;101203.63;5048514;28;70769;-39
2024/01/05 01:04:21;;;;;;;44.95;26.23;;;;;;;29.45;64.63;101202.38;5041521;28;66429;-40
2024/01/05 01:06:52;;;;;;;40.20;25.42;;;;;;;29.50;63.91;101209.84;5035340;28;70490;-38
2024/01/05 01:09:22;;;;;;;40.38;25.95;;;;;;;29.51;64.41;101212.38;5039042;28;66597;-38
2024/01/05 01:11:53;;;;;;;47.20;27.50;;;;;;;29.34;64.23;101175.94;5024551;28;69691;-38
2024/01/05 01:14:24;;;;;;;45.85;26.73;;;;;;;29.55;64.48;101215.50;5019372;28;65783;-41
2024/01/05 01:16:54;;;;;;;36.45;24.80;;;;;;;29.20;64.12;101172.34;5022296;28;70410;-40
2024/01/05 01:19:24;;;;;;;38.05;24.33;;;;;;;29.55;64.19;101224.44;5029636;28;66901;-40
2024/01/05 01:21:55;;;;;;;42.33;26.15;;;;;;;29.49;64.40;101210.91;5028424;28;70194;-40
2024/01/05 01:24:26;;;;;;;49.17;26.20;;;;;;;29.61;64.20;101228.19;5020342;28;66764;-39
2024/01/05 01:26:56;;;;;;;48.35;26.55;;;;;;;29.62;64.17;101229.88;5042998;28;70400;-39
2024/01/05 01:29:26;;;;;;;39.80;24.95;;;;;;;29.58;64.50;101228.59;5028183;28;65941;-38
2024/01/05 01:31:57;;;;;;;46.08;27.13;;;;;;;29.65;64.45;101245.72;5030220;28;70240;-39
2024/01/05 01:34:27;;;;;;;46.47;26.25;;;;;;;29.53;63.94;101225.66;5032840;28;65417;-39
2024/01/05 01:36:57;;;;;;;40.00;25.08;;;;;;;29.65;64.36;101239.47;5028664;28;69685;-39
2024/01/05 01:39:28;;;;;;;39.78;23.92;;;;;;;29.67;64.47;101242.78;5030674;28;65847;-39
2024/01/05 01:41:59;;;;;;;42.20;26.33;;;;;;;29.70;63.95;101248.66;5027604;28;70991;-41
2024/01/05 01:44:30;;;;;;;44.43;25.43;;;;;;;29.59;64.52;101231.13;5051510;28;65094;-37
2024/01/05 01:47:01;;;;;;;38.67;25.15;;;;;;;29.62;64.15;101232.56;5047523;28;69405;-38
2024/01/05 01:49:31;;;;;;;44.70;25.55;;;;;;;29.75;64.18;101251.53;5034142;28;66074;-39
2024/01/05 01:52:02;;;;;;;37.83;25.08;;;;;;;29.76;64.39;101255.94;5035237;28;70299;-38
2024/01/05 01:54:33;;;;;;;40.55;26.00;;;;;;;29.79;63.89;101254.69;5028515;28;66046;-40
2024/01/05 01:57:06;;;;;;;37.20;25.33;;;;;;;29.78;64.32;101251.16;5042266;28;68906;-51
2024/01/05 01:59:37;;;;;;;34.58;25.85;;;;;;;29.79;63.91;101250.13;5023861;28;66677;-38
2024/01/05 02:02:07;;;;;;;38.08;24.85;;;;;;;29.83;63.97;101253.25;5029866;28;69749;-38
2024/01/05 02:04:39;;;;;;;39.97;24.87;;;;;;;29.83;64.21;101248.66;5036992;28;65157;-39
2024/01/05 02:07:11;;;;;;;37.22;25.23;;;;;;;29.88;64.04;101249.94;5027500;28;69223;-38
2024/01/05 02:09:41;;;;;;;39.63;25.33;;;;;;;29.87;64.09;101254.50;5026664;28;66132;-39
2024/01/05 02:12:13;;;;;;;37.80;24.55;;;;;;;29.90;64.18;101253.28;5026607;28;70102;-38
2024/01/05 02:14:44;;;;;;;39.55;25.52;;;;;;;29.91;64.04;101257.63;5030029;28;65974;-38
2024/01/05 02:17:34;;;;;;;36.90;25.23;;;;;;;29.94;64.02;101259.94;5041241;28;69163;-39
2024/01/05 02:20:06;;;;;;;36.72;25.65;;;;;;;29.98;64.09;101261.19;5044601;28;66141;-39
2024/01/05 02:22:40;;;;;;;41.13;26.27;;;;;;;29.83;64.14;101237.84;5037100;28;69661;-39
2024/01/05 02:25:11;;;;;;;37.30;27.00;;;;;;;29.99;63.90;101255.56;5033425;28;66551;-39
2024/01/05 02:27:41;;;;;;;36.15;26.30;;;;;;;29.67;64.13;101203.09;5029256;28;69855;-39
2024/01/05 02:30:18;;;;;;;38.85;27.00;;;;;;;29.92;64.38;101253.88;5051029;28;66375;-39
2024/01/05 02:32:49;;;;;;;39.53;27.70;;;;;;;30.05;63.94;101267.44;5023651;28;70578;-40
2024/01/05 02:35:20;;;;;;;36.63;27.65;;;;;;;30.05;64.34;101257.44;5023330;28;65965;-39
2024/01/05 02:37:50;;;;;;;42.25;29.05;;;;;;;30.10;64.31;101264.94;5037706;28;70377;-40
2024/01/05 02:40:21;;;;;;;41.13;29.05;;;;;;;30.00;63.92;101242.88;5031634;28;66095;-39
2024/01/05 02:42:52;;;;;;;39.20;27.95;;;;;;;30.10;64.41;101253.31;5038115;28;69227;-39
2024/01/05 02:45:24;;;;;;;48.92;30.20;;;;;;;30.12;64.36;101257.47;5037747;28;65635;-39
2024/01/05 02:47:54;;;;;;;;;;;;;;;29.80;65.28;101259.88;5024355;28;70388;-38
2024/01/05 02:50:24;;;;;;;37.35;27.80;;;;;;;30.10;64.44;101259.53;5033110;28;66811;-40
2024/01/05 02:52:54;;;;;;;43.25;29.83;;;;;;;30.04;64.30;101244.13;5021779;28;69989;-38
2024/01/05 02:55:26;;;;;;;40.13;29.00;;;;;;;30.15;64.59;101267.88;5021024;28;65807;-40
2024/01/05 02:57:57;;;;;;;43.47;29.08;;;;;;;30.19;64.20;101269.13;5031399;28;70623;-40
2024/01/05 03:00:27;;;;;;;45.63;29.58;;;;;;;30.20;64.51;101265.41;5024230;28;66457;-39
2024/01/05 03:02:58;;;;;;;45.97;30.08;;;;;;;30.14;64.36;101247.25;5027413;28;70059;-39
2024/01/05 03:05:29;;;;;;;45.45;30.13;;;;;;;30.26;64.04;101264.59;5029832;28;66020;-39
2024/01/05 03:07:59;;;;;;;40.92;29.63;;;;;;;30.23;64.48;101258.78;5026319;28;69910;-39
2024/01/05 03:10:30;;;;;;;47.85;30.50;;;;;;;30.16;64.52;101247.88;5024248;28;65895;-38
2024/01/05 03:13:00;;;;;;;42.80;30.42;;;;;;;30.33;64.48;101275.41;5014325;28;69861;-38
2024/01/05 03:15:31;;;;;;;42.90;29.17;;;;;;;30.32;64.33;101262.94;5034448;28;66695;-39
2024/01/05 03:18:01;;;;;;;48.53;30.85;;;;;;;30.25;64.38;101246.66;5031484;28;70485;-38
2024/01/05 03:20:32;;;;;;;46.08;31.02;;;;;;;30.36;64.34;101258.75;5037950;28;65368;-39
2024/01/05 03:23:02;;;;;;;52.75;32.25;;;;;;;30.40;64.16;101264.59;5026931;28;69265;-39
2024/01/05 03:25:33;;;;;;;42.67;30.02;;;;;;;30.41;64.54;101266.25;5031160;28;67460;-38
2024/01/05 03:28:03;;;;;;;44.90;29.27;;;;;;;30.43;64.40;101269.59;5021080;28;69103;-38
2024/01/05 03:30:43;;;;;;;42.65;29.23;;;;;;;30.44;64.52;101269.38;5019451;28;65669;-39
2024/01/05 03:33:14;;;;;;;48.10;30.42;;;;;;;30.36;64.34;101257.91;5037892;28;70647;-39
2024/01/05 03:35:44;;;;;;;43.55;30.40;;;;;;;30.46;64.17;101266.47;5028859;28;65758;-40
2024/01/05 03:38:15;;;;;;;44.83;31.33;;;;;;;30.37;64.55;101254.16;5020344;28;69867;-39
2024/01/05 03:40:45;;;;;;;45.03;31.50;;;;;;;30.50;64.57;101259.59;5022462;28;65586;-38
2024/01/05 03:43:17;;;;;;;44.97;31.38;;;;;;;30.50;64.77;101262.28;5029800;28;71081;-40
2024/01/05 03:45:52;;;;;;;49.03;30.70;;;;;;;30.53;64.51;101258.34;5038049;28;64760;-39
2024/01/05 03:48:23;;;;;;;41.10;30.48;;;;;;;30.54;64.70;101250.03;5031959;28;69832;-39
2024/01/05 03:50:54;;;;;;;44.20;30.25;;;;;;;30.56;64.44;101242.50;5048022;28;66026;-39
2024/01/05 03:53:25;;;;;;;41.77;31.10;;;;;;;30.50;64.92;101221.69;5027507;28;70205;-39
2024/01/05 03:55:59;;;;;;;54.55;32.72;;;;;;;30.61;64.56;101226.47;5041705;28;66364;-39
2024/01/05 03:58:30;;;;;;;51.08;33.80;;;;;;;30.64;64.73;101222.50;5053084;28;69888;-39
2024/01/05 04:01:04;;;;;;;49.20;33.08;;;;;;;30.66;64.49;101212.31;5039150;28;66570;-40
2024/01/05 04:03:34;;;;;;;53.67;32.25;;;;;;;30.68;64.72;101211.06;5037741;28;70002;-36
2024/01/05 04:06:05;;;;;;;46.00;31.23;;;;;;;30.68;64.51;101202.94;5026058;28;66590;-40
2024/01/05 04:08:39;;;;;;;45.72;32.28;;;;;;;30.70;64.45;101200.84;5040648;28;69926;-40
2024/01/05 04:11:17;;;;;;;43.80;31.35;;;;;;;30.73;64.38;101189.59;5023305;28;66652;-40
2024/01/05 04:13:48;;;;;;;40.17;30.50;;;;;;;30.76;64.77;101179.34;5036816;28;70773;-40
2024/01/05 04:16:18;;;;;;;48.28;32.97;;;;;;;30.78;64.46;101179.97;5007996;28;65906;-38
2024/01/05 04:18:49;;;;;;;45.72;32.72;;;;;;;30.71;64.66;101164.59;5030999;28;70276;-39
2024/01/05 04:21:19;;;;;;;46.33;31.08;;;;;;;30.81;64.78;101171.47;5028569;28;66274;-39
2024/01/05 04:23:55;;;;;;;46.10;31.50;;;;;;;30.41;64.78;101093.03;5023782;28;70350;-38
2024/01/05 04:26:26;;;;;;;48.97;32.97;;;;;;;30.72;64.73;101138.34;5022096;28;66323;-40
2024/01/05 04:28:57;;;;;;;45.30;34.03;;;;;;;30.88;64.59;101164.16;5024736;28;70393;-39
2024/01/05 04:31:27;;;;;;;47.88;33.33;;;;;;;30.61;64.49;101110.03;5038305;28;66085;-40
2024/01/05 04:33:58;;;;;;;43.17;32.75;;;;;;;30.90;64.85;101153.94;5037374;28;70509;-39
2024/01/05 04:36:28;;;;;;;51.45;33.35;;;;;;;30.94;64.17;101145.16;5047542;28;65437;-39
2024/01/05 04:38:59;;;;;;;50.40;34.80;;;;;;;30.92;64.41;101138.28;5029743;28;70035;-39
2024/01/05 04:41:29;;;;;;;51.53;35.03;;;;;;;30.92;64.35;101127.44;5025054;28;65546;-38
2024/01/05 04:44:00;;;;;;;47.45;33.78;;;;;;;31.00;64.68;101132.63;5037042;28;70320;-39
2024/01/05 04:46:31;;;;;;;49.80;34.28;;;;;;;31.02;64.58;101125.13;5048977;28;66440;-38
2024/01/05 04:49:01;;;;;;;49.38;34.53;;;;;;;31.04;64.64;101127.63;5033614;28;70334;-40
2024/01/05 04:51:34;;;;;;;52.45;35.90;;;;;;;30.95;64.38;101110.78;5038380;28;65834;-39
2024/01/05 04:54:04;;;;;;;50.83;35.08;;;;;;;31.08;64.70;101126.97;5037535;28;70407;-38
2024/01/05 04:56:35;;;;;;;50.97;35.65;;;;;;;31.07;64.21;101109.06;5040398;28;65723;-38
2024/01/05 04:59:05;;;;;;;48.17;35.38;;;;;;;31.11;64.23;101120.28;5040499;28;69352;-39
2024/01/05 05:01:36;;;;;;;56.60;37.45;;;;;;;31.08;64.37;101105.28;5059974;28;66537;-39
2024/01/05 05:04:07;;;;;;;52.38;36.17;;;;;;;31.14;64.85;101120.69;5038844;28;70365;-40
2024/01/05 05:06:37;;;;;;;56.00;36.90;;;;;;;31.15;64.19;101111.53;5029150;28;66303;-40
2024/01/05 05:09:09;;;;;;;44.97;34.63;;;;;;;31.11;64.63;101093.19;5032338;28;69694;-40
2024/01/05 05:11:43;;;;;;;53.45;36.88;;;;;;;31.11;64.58;101090.47;5026378;28;67018;-39
2024/01/05 05:14:14;;;;;;;52.72;36.67;;;;;;;31.19;64.66;101094.81;5026629;28;70179;-39
2024/01/05 05:16:44;;;;;;;56.80;37.83;;;;;;;31.23;64.45;101086.06;5044975;28;67427;-39
2024/01/05 05:19:14;;;;;;;53.03;37.78;;;;;;;31.19;64.66;101062.31;5042136;28;69468;-38
2024/01/05 05:21:45;;;;;;;58.03;39.72;;;;;;;31.23;64.27;101069.78;5039756;28;66701;-40
2024/01/05 05:24:16;;;;;;;54.15;37.45;;;;;;;31.25;64.42;101072.25;5039041;28;69929;-40
2024/01/05 05:26:46;;;;;;;55.65;37.63;;;;;;;31.23;64.66;101058.94;5030583;28;66147;-38
2024/01/05 05:29:17;;;;;;;55.13;38.97;;;;;;;31.20;64.89;101047.69;5055318;28;69439;-40
2024/01/05 05:31:47;;;;;;;58.15;39.38;;;;;;;31.27;64.53;101062.03;5024537;28;66173;-39
2024/01/05 05:34:18;;;;;;;54.88;39.58;;;;;;;31.28;64.46;101056.38;5025653;28;70468;-41
2024/01/05 05:36:49;;;;;;;52.83;37.85;;;;;;;31.29;64.83;101058.06;5030645;28;65711;-41
2024/01/05 05:39:19;;;;;;;57.92;39.35;;;;;;;31.26;64.62;101052.25;5038504;28;69802;-40
2024/01/05 05:41:50;;;;;;;49.03;37.10;;;;;;;31.28;64.84;101061.00;5038267;28;65491;-41
2024/01/05 05:44:21;;;;;;;53.17;37.83;;;;;;;31.28;64.63;101044.72;5046520;28;70009;-39
2024/01/05 05:46:52;;;;;;;55.78;37.47;;;;;;;31.31;64.63;101049.69;5042761;28;65796;-40
2024/01/05 05:49:23;;;;;;;58.23;38.90;;;;;;;30.96;64.96;100992.44;5035633;28;69427;-39
2024/01/05 05:51:54;;;;;;;53.60;37.65;;;;;;;31.32;64.74;101045.97;5035876;28;66670;-39
2024/01/05 05:54:25;;;;;;;55.60;37.47;;;;;;;31.32;65.03;101045.97;5036245;28;70387;-39
2024/01/05 05:56:56;;;;;;;53.50;38.55;;;;;;;31.32;64.78;101035.13;5040820;28;66247;-38
2024/01/05 05:59:27;;;;;;;60.37;38.07;;;;;;;31.33;64.47;101028.63;5040762;28;69733;-40
2024/01/05 06:01:57;;;;;;;44.85;33.03;;;;;;;31.35;64.39;101029.25;5052790;28;66744;-42
2024/01/05 06:04:28;;;;;;;49.95;35.40;;;;;;;31.33;64.89;101020.50;5037305;28;70130;-41
2024/01/05 06:06:58;;;;;;;55.00;36.63;;;;;;;31.36;64.53;101023.63;5042324;28;65112;-39
2024/01/05 06:09:29;;;;;;;53.25;37.72;;;;;;;31.38;64.53;101020.72;5040203;28;69559;-41
2024/01/05 06:11:59;;;;;;;50.40;36.40;;;;;;;31.40;64.20;101010.50;5043904;28;65851;-39
2024/01/05 06:14:30;;;;;;;55.22;37.08;;;;;;;31.42;64.42;101002.13;5062724;28;70201;-40
2024/01/05 06:17:01;;;;;;;53.00;38.15;;;;;;;31.01;64.64;100930.28;5039483;28;66743;-39
2024/01/05 06:19:31;;;;;;;56.75;37.45;;;;;;;31.38;64.61;100977.34;5040555;28;70137;-39
2024/01/05 06:22:01;;;;;;;53.72;37.20;;;;;;;31.18;64.43;100942.25;5029820;28;65950;-39
2024/01/05 06:24:32;;;;;;;53.25;36.55;;;;;;;31.44;64.50;100973.75;5040006;28;70438;-41
2024/01/05 06:27:03;;;;;;;48.05;34.42;;;;;;;31.44;64.85;100979.16;5026424;28;68030;-40
2024/01/05 06:29:34;;;;;;;47.53;34.73;;;;;;;31.45;64.41;100971.84;5047747;28;70895;-38
2024/01/05 06:32:05;;;;;;;45.03;34.08;;;;;;;31.51;64.82;100973.66;5033967;28;66073;-40
2024/01/05 06:34:35;;;;;;;52.85;36.40;;;;;;;31.45;64.20;100948.28;5045820;28;69531;-41
2024/01/05 06:37:06;;;;;;;50.10;35.03;;;;;;;31.53;64.66;100960.72;5031707;28;66958;-40
2024/01/05 06:39:36;;;;;;;50.92;37.08;;;;;;;31.54;64.47;100962.41;5028607;28;69856;-38
2024/01/05 06:42:07;;;;;;;50.83;37.50;;;;;;;31.56;64.52;100969.25;5040548;28;66156;-39
2024/01/05 06:44:38;;;;;;;55.47;38.23;;;;;;;31.48;64.64;100958.72;5042772;28;69377;-40
2024/01/05 06:47:09;;;;;;;60.25;38.13;;;;;;;31.58;64.53;100950.03;5020155;28;66203;-39
2024/01/05 06:49:39;;;;;;;53.20;36.40;;;;;;;31.56;64.67;100944.84;5029014;28;70465;-39
2024/01/05 06:52:11;;;;;;;49.60;36.43;;;;;;;31.50;64.37;100928.66;5006779;28;66128;-39
2024/01/05 06:54:41;;;;;;;48.88;37.05;;;;;;;31.63;64.63;100943.97;5024342;28;70511;-40
2024/01/05 06:57:12;;;;;;;53.30;35.63;;;;;;;31.64;64.49;100934.75;5026691;28;66323;-39
2024/01/05 06:59:43;;;;;;;50.57;33.80;;;;;;;31.43;64.42;100896.19;5036108;28;70842;-40
2024/01/05 07:02:14;;;;;;;44.50;34.53;;;;;;;31.66;64.62;100927.25;5022283;28;65346;-41
2024/01/05 07:04:46;;;;;;;47.67;33.97;;;;;;;31.66;64.41;100927.25;5033113;28;70423;-40
2024/01/05 07:07:17;;;;;;;44.70;32.95;;;;;;;31.62;64.66;100913.28;5021391;28;66231;-41
2024/01/05 07:09:48;;;;;;;40.05;32.55;;;;;;;31.66;64.42;100910.97;5019633;28;69740;-40
2024/01/05 07:12:23;;;;;;;46.90;33.45;;;;;;;31.73;64.44;100917.13;5021580;28;66756;-46
2024/01/05 07:14:53;;;;;;;47.95;33.10;;;;;;;31.75;64.39;100909.63;5021403;28;70102;-40
2024/01/05 07:17:24;;;;;;;44.27;33.87;;;;;;;31.70;64.60;100904.84;5053244;28;66011;-41
2024/01/05 07:19:56;;;;;;;43.75;32.90;;;;;;;31.74;64.15;100897.13;5019872;28;69420;-39
2024/01/05 07:22:27;;;;;;;40.83;31.53;;;;;;;31.78;64.42;100901.03;5053638;28;66094;-41
2024/01/05 07:24:58;;;;;;;42.70;32.75;;;;;;;31.81;64.38;100897.84;5030208;28;70302;-39
2024/01/05 07:27:29;;;;;;;43.72;32.40;;;;;;;31.80;64.27;100891.59;5024702;28;65539;-40
2024/01/05 07:30:00;;;;;;;40.85;30.13;;;;;;;31.72;64.47;100872.09;5037385;28;71002;-40
2024/01/05 07:32:39;;;;;;;44.70;31.02;;;;;;;31.70;64.29;100857.94;5028996;28;65215;-40
2024/01/05 07:35:10;;;;;;;42.75;31.55;;;;;;;31.89;64.27;100889.41;5038113;28;70719;-39
2024/01/05 07:37:41;;;;;;;38.50;31.48;;;;;;;31.91;64.53;100898.19;5024903;28;65174;-38
2024/01/05 07:40:13;;;;;;;43.30;31.38;;;;;;;31.93;64.23;100901.50;5029477;28;70725;-41
2024/01/05 07:42:43;;;;;;;44.33;31.75;;;;;;;31.81;64.37;100881.56;5026855;28;65492;-40
2024/01/05 07:45:14;;;;;;;38.50;31.27;;;;;;;31.92;64.12;100897.13;5049344;28;70259;-40
2024/01/05 07:47:50;;;;;;;43.70;31.55;;;;;;;31.96;64.26;100894.81;5055506;28;66116;-40
2024/01/05 07:50:21;;;;;;;42.22;29.85;;;;;;;31.95;64.17;100893.94;5023776;28;70078;-40
2024/01/05 07:52:52;;;;;;;42.95;31.20;;;;;;;31.99;64.31;100889.75;5047369;28;66240;-41
2024/01/05 07:55:24;;;;;;;39.13;31.10;;;;;;;32.02;64.12;100889.28;5040519;28;69251;-39
2024/01/05 07:57:54;;;;;;;44.78;32.60;;;;;;;32.04;64.20;100889.91;5054595;28;65167;-39
2024/01/05 08:00:25;;;;;;;42.80;32.15;;;;;;;32.05;64.04;100880.69;5046986;28;70555;-38
2024/01/05 08:02:55;;;;;;;42.22;32.25;;;;;;;32.08;64.29;100881.28;5059110;28;66366;-40
2024/01/05 08:05:26;;;;;;;37.28;30.92;;;;;;;32.09;63.79;100885.66;5040932;28;70456;-39
2024/01/05 08:07:57;;;;;;;38.73;31.77;;;;;;;32.07;64.28;100879.63;5034717;28;66205;-38
2024/01/05 08:10:28;;;;;;;40.05;32.33;;;;;;;32.11;64.10;100876.22;5041263;28;70105;-39
2024/01/05 08:13:01;;;;;;;37.95;30.88;;;;;;;32.13;63.86;100867.88;5041678;28;66041;-39
2024/01/05 08:15:32;;;;;;;41.08;31.40;;;;;;;32.15;64.08;100871.16;5043967;28;69520;-40
2024/01/05 08:18:11;;;;;;;44.08;32.28;;;;;;;32.15;64.04;100876.59;5031689;28;65886;-39
2024/01/05 08:20:42;;;;;;;37.05;30.30;;;;;;;32.11;64.36;100878.94;5038992;28;70113;-40
2024/01/05 08:23:13;;;;;;;38.45;31.88;;;;;;;32.18;64.18;100879.69;5030708;28;66265;-38
2024/01/05 08:25:43;;;;;;;44.33;32.45;;;;;;;32.15;64.19;100873.88;5036303;28;70399;-39
2024/01/05 08:28:16;;;;;;;47.28;33.47;;;;;;;32.22;64.21;100883.59;5034248;28;65594;-40
2024/01/05 08:30:47;;;;;;;49.15;31.95;;;;;;;32.24;64.09;100886.91;5029702;28;70477;-40
2024/01/05 08:33:17;;;;;;;47.20;34.17;;;;;;;32.23;64.31;100882.56;5036738;28;65871;-39
2024/01/05 08:35:48;;;;;;;42.50;32.15;;;;;;;32.27;64.42;100880.19;5032872;28;70420;-39
2024/01/05 08:38:19;;;;;;;45.75;32.80;;;;;;;32.24;64.33;100875.25;5039919;28;65988;-40
2024/01/05 08:40:52;;;;;;;44.92;33.08;;;;;;;32.25;64.56;100880.41;5041199;28;69208;-41
2024/01/05 08:43:23;;;;;;;45.15;33.38;;;;;;;32.30;64.59;100896.03;5042553;28;67111;-39
2024/01/05 08:45:54;;;;;;;46.25;33.63;;;;;;;32.30;64.54;100889.78;5030524;28;70533;-40
2024/01/05 08:48:25;;;;;;;44.42;34.25;;;;;;;32.31;64.69;100894.97;5026379;28;65863;-40
2024/01/05 08:50:55;;;;;;;44.78;33.95;;;;;;;32.15;64.63;100866.59;5012905;28;69166;-41
2024/01/05 08:53:26;;;;;;;43.97;33.55;;;;;;;32.24;64.51;100888.81;5044650;28;65848;-39
2024/01/05 08:55:56;;;;;;;47.20;34.85;;;;;;;32.31;64.61;100897.66;5041070;28;70135;-39
2024/01/05 08:58:27;;;;;;;47.67;35.15;;;;;;;32.34;64.83;100899.09;5043230;28;65164;-40
2024/01/05 09:00:58;;;;;;;42.38;33.13;;;;;;;32.34;64.73;100902.63;5048802;28;70301;-40
2024/01/05 09:03:29;;;;;;;42.20;33.38;;;;;;;32.30;64.86;100890.59;5062160;28;65095;-38
2024/01/05 09:06:00;;;;;;;43.45;32.78;;;;;;;32.28;64.66;100892.72;5047579;28;70467;-40
2024/01/05 09:08:32;;;;;;;46.72;35.90;;;;;;;32.31;64.89;100894.97;5036669;28;65195;-40
2024/01/05 09:11:04;;;;;;;50.20;34.35;;;;;;;32.27;65.01;100894.59;5031479;28;69453;-40
2024/01/05 09:13:34;;;;;;;;;;;;;;;32.08;66.39;100911.97;5043087;28;66163;-38
2024/01/05 09:16:07;;;;;;;45.05;34.42;;;;;;;32.28;64.89;100911.72;5041847;28;70411;-40
2024/01/05 09:18:38;;;;;;;45.75;32.92;;;;;;;32.33;64.94;100922.72;5054615;28;66271;-39
2024/01/05 09:21:11;;;;;;;39.17;30.13;;;;;;;32.30;64.89;100922.34;5033809;28;70055;-41
2024/01/05 09:23:43;;;;;;;44.85;33.13;;;;;;;32.34;65.01;100924.34;5030635;28;66291;-40
2024/01/05 09:26:16;;;;;;;;;;;;;;;32.08;66.43;100930.97;5043387;28;69585;-39
2024/01/05 09:28:46;;;;;;;49.35;31.45;;;;;;;32.27;65.21;100929.88;5024405;28;66898;-40
2024/01/05 09:31:17;;;;;;;43.17;30.83;;;;;;;32.24;65.05;100921.38;5041509;28;69296;-40
2024/01/05 09:33:49;;;;;;;44.42;30.75;;;;;;;32.33;64.90;100938.19;5034572;28;65719;-40
2024/01/05 09:36:20;;;;;;;38.15;30.58;;;;;;;32.24;65.17;100927.63;5047952;28;69753;-40
2024/01/05 09:39:14;;;;;;;43.15;32.53;;;;;;;32.30;65.11;100935.91;5028896;28;65664;-40
2024/01/05 09:42:04;;;;;;;40.38;30.88;;;;;;;32.29;65.12;100932.38;5050174;28;69364;-41
2024/01/05 09:44:55;;;;;;;42.75;31.45;;;;;;;32.29;64.78;100932.38;5025706;28;65516;-41
2024/01/05 09:47:47;;;;;;;37.58;29.45;;;;;;;32.28;64.96;100936.13;5031259;28;69509;-41
2024/01/05 09:50:38;;;;;;;41.45;30.70;;;;;;;32.23;65.29;100933.28;5046689;28;65440;-41
2024/01/05 09:53:28;;;;;;;39.85;30.52;;;;;;;32.31;65.10;100946.53;5024365;28;69371;-40
2024/01/05 09:56:20;;;;;;;36.80;29.08;;;;;;;32.27;65.28;100945.34;5034845;28;65635;-42
2024/01/05 09:59:10;;;;;;;38.05;29.42;;;;;;;32.27;65.31;100951.59;5016732;28;69407;-41
2024/01/05 10:02:04;;;;;;;40.25;29.08;;;;;;;32.22;65.23;100939.78;5055320;28;64587;-40
2024/01/05 10:04:55;;;;;;;38.28;28.90;;;;;;;32.31;65.34;100962.81;5035558;28;69420;-40
2024/01/05 10:07:46;;;;;;;34.45;28.95;;;;;;;32.28;65.49;100974.97;5031024;28;64940;-41
2024/01/05 10:10:48;;;;;;;40.00;28.52;;;;;;;31.84;65.64;100908.25;5018836;28;69416;-41
2024/01/05 10:13:54;;;;;;;33.28;26.55;;;;;;;31.80;66.11;100912.47;5037824;28;66000;-40
2024/01/05 10:16:45;;;;;;;38.22;27.50;;;;;;;32.28;65.52;100979.56;5043142;28;68743;-41
2024/01/05 10:19:35;;;;;;;30.67;26.00;;;;;;;32.30;65.44;100982.06;5029730;28;63883;-42
2024/01/05 10:22:27;;;;;;;33.67;25.55;;;;;;;32.29;65.71;100983.97;5030852;28;69432;-40
2024/01/05 10:25:22;;;;;;;30.60;25.23;;;;;;;32.25;65.66;100988.16;5034658;28;63970;-42
2024/01/05 10:28:31;;;;;;;30.20;24.65;;;;;;;32.21;66.40;101000.56;5038892;28;69692;-40
2024/01/05 10:31:21;;;;;;;31.00;24.17;;;;;;;32.27;65.86;100999.63;5041248;28;65562;-40
2024/01/05 10:34:12;;;;;;;28.70;24.33;;;;;;;32.25;66.05;101013.41;5036225;28;69492;-40
2024/01/05 10:37:06;;;;;;;33.55;26.13;;;;;;;32.26;66.16;101019.66;5023847;28;65731;-41
2024/01/05 10:40:01;;;;;;;29.60;24.35;;;;;;;32.23;66.08;101014.69;5036773;28;69712;-40
2024/01/05 10:43:07;;;;;;;34.65;25.58;;;;;;;32.13;66.81;101019.84;5027935;28;64526;-41
2024/01/05 10:45:59;;;;;;;31.38;23.10;;;;;;;32.19;66.04;101033.34;5034651;28;68157;-41
2024/01/05 10:48:50;;;;;;;32.45;23.90;;;;;;;32.16;66.32;101035.69;5027591;28;65198;-42
2024/01/05 10:51:41;;;;;;;34.65;23.25;;;;;;;32.17;66.08;101043.56;5047130;28;69960;-41
2024/01/05 10:54:34;;;;;;;34.28;26.42;;;;;;;31.74;66.33;100973.88;5043107;28;66629;-41
2024/01/05 10:57:24;;;;;;;34.88;27.77;;;;;;;32.18;66.60;101049.81;5021360;28;70680;-41
2024/01/05 11:00:15;;;;;;;42.25;27.73;;;;;;;32.15;66.31;101051.13;5046505;28;65686;-41
2024/01/05 11:03:06;;;;;;;39.30;28.52;;;;;;;32.17;66.35;101056.31;5005762;28;69346;-42
2024/01/05 11:05:58;;;;;;;33.63;25.30;;;;;;;32.11;66.46;101054.50;5031157;28;65779;-41
2024/01/05 11:09:11;;;;;;;27.10;22.50;;;;;;;31.63;67.68;100988.19;5026584;28;69509;-41
2024/01/05 11:12:17;;;;;;;29.50;21.52;;;;;;;31.90;67.35;101037.59;5041769;28;65542;-43
2024/01/05 11:15:17;;;;;;;33.80;26.02;;;;;;;31.89;69.14;101070.34;5027331;28;43209;-41
2024/01/05 11:18:22;;;;;;;41.97;27.88;;;;;;;31.61;71.99;101075.16;5026750;28;65568;-41
2024/01/05 11:21:32;;;;;;;36.15;26.52;;;;;;;31.50;73.02;101069.63;5038705;28;69917;-39
2024/01/05 11:24:24;;;;;;;37.78;26.83;;;;;;;31.47;72.74;101065.47;5039554;28;64678;-39
2024/01/05 11:27:34;;;;;;;35.13;25.50;;;;;;;31.35;73.50;101072.63;5039929;28;69685;-40
2024/01/05 11:30:45;;;;;;;35.90;27.55;;;;;;;31.32;74.19;101079.31;5039329;28;65344;-40
2024/01/05 11:33:48;;;;;;;43.45;27.85;;;;;;;31.35;73.69;101089.72;5032852;28;68481;-40
2024/01/05 11:36:51;;;;;;;36.15;27.48;;;;;;;31.32;74.04;101078.50;5038776;28;65725;-39
2024/01/05 11:39:45;;;;;;;43.08;29.65;;;;;;;31.33;74.24;101085.56;5032675;28;69399;-41
2024/01/05 11:42:36;;;;;;;37.58;29.27;;;;;;;31.27;73.87;101081.03;5050320;28;66311;-40
2024/01/05 11:45:44;;;;;;;42.22;28.52;;;;;;;31.47;72.04;101091.75;5023982;28;69611;-41